sensor_id;sensor_type;location;lat;lon;timestamp;pressure;altitude;pressure_sealevel;temperature;humidity
32492;BME280;20605;49.742;18.802;2022-09-09T00:00:24;97509.27;;;17.40;100.00
32492;BME280;20605;49.742;18.802;2022-09-09T00:03:05;97512.09;;;17.37;100.00
32492;BME280;20605;49.742;18.802;2022-09-09T00:08:34;97503.82;;;17.36;100.00
32492;BME280;20605;49.742;18.802;2022-09-09T00:11:04;97507.13;;;17.33;100.00
32492;BME280;20605;49.742;18.802;2022-09-09T00:13:41;97502.23;;;17.34;100.00
32492;BME280;20605;49.742;18.802;2022-09-09T00:16:21;97504.29;;;17.36;100.00
32492;BME280;20605;49.742;18.802;2022-09-09T00:24:51;97517.06;;;17.42;100.00
32492;BME280;20605;49.742;18.802;2022-09-09T00:27:45;97515.11;;;17.31;100.00
32492;BME280;20605;49.742;18.802;2022-09-09T00:32:53;97523.87;;;17.24;100.00
32492;BME280;20605;49.742;18.802;2022-09-09T00:35:24;97518.50;;;17.26;100.00
32492;BME280;20605;49.742;18.802;2022-09-09T00:37:56;97524.61;;;17.26;100.00
32492;BME280;20605;49.742;18.802;2022-09-09T00:40:30;97512.67;;;17.28;100.00
32492;BME280;20605;49.742;18.802;2022-09-09T00:43:10;97519.35;;;17.26;100.00
32492;BME280;20605;49.742;18.802;2022-09-09T00:45:54;97522.37;;;17.20;100.00
32492;BME280;20605;49.742;18.802;2022-09-09T00:52:10;97532.89;;;17.20;100.00
32492;BME280;20605;49.742;18.802;2022-09-09T01:00:16;97543.02;;;17.41;100.00
32492;BME280;20605;49.742;18.802;2022-09-09T01:02:56;97540.75;;;17.49;100.00
32492;BME280;20605;49.742;18.802;2022-09-09T01:05:33;97543.46;;;17.54;100.00
32492;BME280;20605;49.742;18.802;2022-09-09T01:08:05;97546.47;;;17.55;100.00
32492;BME280;20605;49.742;18.802;2022-09-09T01:10:39;97539.89;;;17.55;100.00
32492;BME280;20605;49.742;18.802;2022-09-09T01:13:30;97539.23;;;17.52;100.00
32492;BME280;20605;49.742;18.802;2022-09-09T01:15:59;97540.55;;;17.52;100.00
32492;BME280;20605;49.742;18.802;2022-09-09T01:18:33;97534.54;;;17.50;100.00
32492;BME280;20605;49.742;18.802;2022-09-09T01:24:20;97538.05;;;17.29;100.00
32492;BME280;20605;49.742;18.802;2022-09-09T01:27:06;97539.84;;;17.28;100.00
32492;BME280;20605;49.742;18.802;2022-09-09T01:29:33;97545.48;;;17.29;100.00
32492;BME280;20605;49.742;18.802;2022-09-09T01:32:37;97546.98;;;17.34;100.00
32492;BME280;20605;49.742;18.802;2022-09-09T01:34:33;97547.17;;;17.31;100.00
32492;BME280;20605;49.742;18.802;2022-09-09T01:37:04;97549.05;;;17.28;100.00
32492;BME280;20605;49.742;18.802;2022-09-09T01:39:34;97551.59;;;17.30;100.00
32492;BME280;20605;49.742;18.802;2022-09-09T01:42:05;97549.70;;;17.32;100.00
32492;BME280;20605;49.742;18.802;2022-09-09T01:44:34;97558.36;;;17.27;100.00
32492;BME280;20605;49.742;18.802;2022-09-09T01:47:03;97557.61;;;17.25;100.00
32492;BME280;20605;49.742;18.802;2022-09-09T01:49:31;97556.48;;;17.29;100.00
32492;BME280;20605;49.742;18.802;2022-09-09T01:52:01;97555.44;;;17.32;100.00
32492;BME280;20605;49.742;18.802;2022-09-09T01:54:33;97551.97;;;17.31;100.00
32492;BME280;20605;49.742;18.802;2022-09-09T01:57:23;97552.91;;;17.30;100.00
32492;BME280;20605;49.742;18.802;2022-09-09T02:00:08;97560.63;;;17.26;100.00
32492;BME280;20605;49.742;18.802;2022-09-09T02:02:51;97562.03;;;17.17;100.00
32492;BME280;20605;49.742;18.802;2022-09-09T02:05:45;97556.59;;;17.06;100.00
32492;BME280;20605;49.742;18.802;2022-09-09T02:08:48;97558.84;;;17.05;100.00
32492;BME280;20605;49.742;18.802;2022-09-09T02:11:15;97565.89;;;17.05;100.00
32492;BME280;20605;49.742;18.802;2022-09-09T02:13:54;97568.05;;;17.05;100.00
32492;BME280;20605;49.742;18.802;2022-09-09T02:16:37;97566.64;;;17.07;100.00
32492;BME280;20605;49.742;18.802;2022-09-09T02:19:32;97569.47;;;17.11;100.00
32492;BME280;20605;49.742;18.802;2022-09-09T02:22:07;97568.43;;;17.13;100.00
32492;BME280;20605;49.742;18.802;2022-09-09T02:24:36;97576.89;;;17.11;100.00
32492;BME280;20605;49.742;18.802;2022-09-09T02:27:14;97583.75;;;17.14;100.00
32492;BME280;20605;49.742;18.802;2022-09-09T02:29:44;97583.94;;;17.11;100.00
32492;BME280;20605;49.742;18.802;2022-09-09T02:32:20;97578.20;;;17.04;100.00
32492;BME280;20605;49.742;18.802;2022-09-09T02:34:52;97581.77;;;16.96;100.00
32492;BME280;20605;49.742;18.802;2022-09-09T02:37:25;97586.84;;;16.92;100.00
32492;BME280;20605;49.742;18.802;2022-09-09T02:39:55;97594.67;;;16.86;100.00
32492;BME280;20605;49.742;18.802;2022-09-09T02:42:22;97595.23;;;16.84;100.00
32492;BME280;20605;49.742;18.802;2022-09-09T02:44:50;97592.03;;;16.86;100.00
32492;BME280;20605;49.742;18.802;2022-09-09T02:50:32;97597.02;;;16.84;100.00
32492;BME280;20605;49.742;18.802;2022-09-09T02:53:04;97600.95;;;16.84;100.00
32492;BME280;20605;49.742;18.802;2022-09-09T02:55:45;97595.69;;;16.77;100.00
32492;BME280;20605;49.742;18.802;2022-09-09T02:58:13;97599.23;;;16.69;100.00
32492;BME280;20605;49.742;18.802;2022-09-09T03:00:46;97604.45;;;16.61;100.00
32492;BME280;20605;49.742;18.802;2022-09-09T03:03:16;97598.02;;;16.67;100.00
32492;BME280;20605;49.742;18.802;2022-09-09T03:05:44;97601.78;;;16.70;100.00
32492;BME280;20605;49.742;18.802;2022-09-09T03:08:11;97603.67;;;16.75;100.00
32492;BME280;20605;49.742;18.802;2022-09-09T03:10:39;97607.25;;;16.81;100.00
32492;BME280;20605;49.742;18.802;2022-09-09T03:13:06;97608.85;;;16.84;100.00
32492;BME280;20605;49.742;18.802;2022-09-09T03:15:35;97610.73;;;16.82;100.00
32492;BME280;20605;49.742;18.802;2022-09-09T03:18:04;97610.26;;;16.82;100.00
32492;BME280;20605;49.742;18.802;2022-09-09T03:20:33;97607.23;;;16.74;100.00
32492;BME280;20605;49.742;18.802;2022-09-09T03:23:00;97610.41;;;16.65;100.00
32492;BME280;20605;49.742;18.802;2022-09-09T03:25:27;97615.80;;;16.55;100.00
32492;BME280;20605;49.742;18.802;2022-09-09T03:27:55;97614.55;;;16.46;100.00
32492;BME280;20605;49.742;18.802;2022-09-09T03:30:26;97623.93;;;16.43;100.00
32492;BME280;20605;49.742;18.802;2022-09-09T03:32:55;97618.38;;;16.41;100.00
32492;BME280;20605;49.742;18.802;2022-09-09T03:35:24;97619.23;;;16.41;100.00
32492;BME280;20605;49.742;18.802;2022-09-09T03:37:50;97612.56;;;16.43;100.00
32492;BME280;20605;49.742;18.802;2022-09-09T03:40:18;97619.98;;;16.43;100.00
32492;BME280;20605;49.742;18.802;2022-09-09T03:42:45;97618.94;;;16.39;100.00
32492;BME280;20605;49.742;18.802;2022-09-09T03:45:12;97623.14;;;16.34;100.00
32492;BME280;20605;49.742;18.802;2022-09-09T03:47:39;97617.31;;;16.29;100.00
32492;BME280;20605;49.742;18.802;2022-09-09T03:50:07;97616.26;;;16.24;100.00
32492;BME280;20605;49.742;18.802;2022-09-09T03:52:39;97620.55;;;16.18;100.00
32492;BME280;20605;49.742;18.802;2022-09-09T03:55:08;97620.75;;;16.22;100.00
32492;BME280;20605;49.742;18.802;2022-09-09T03:57:36;97618.23;;;16.28;100.00
32492;BME280;20605;49.742;18.802;2022-09-09T04:00:05;97618.73;;;16.35;100.00
32492;BME280;20605;49.742;18.802;2022-09-09T04:02:35;97622.13;;;16.37;100.00
32492;BME280;20605;49.742;18.802;2022-09-09T04:05:02;97626.94;;;16.44;100.00
32492;BME280;20605;49.742;18.802;2022-09-09T04:07:29;97613.06;;;16.49;100.00
32492;BME280;20605;49.742;18.802;2022-09-09T04:09:56;97616.89;;;16.44;100.00
32492;BME280;20605;49.742;18.802;2022-09-09T04:12:23;97618.30;;;16.42;100.00
32492;BME280;20605;49.742;18.802;2022-09-09T04:14:50;97624.22;;;16.46;100.00
32492;BME280;20605;49.742;18.802;2022-09-09T04:17:17;97628.83;;;16.49;100.00
32492;BME280;20605;49.742;18.802;2022-09-09T04:19:44;97632.86;;;16.48;100.00
32492;BME280;20605;49.742;18.802;2022-09-09T04:22:10;97629.59;;;16.51;100.00
32492;BME280;20605;49.742;18.802;2022-09-09T04:24:37;97627.25;;;16.54;100.00
32492;BME280;20605;49.742;18.802;2022-09-09T04:27:04;97634.29;;;16.53;100.00
32492;BME280;20605;49.742;18.802;2022-09-09T04:29:31;97634.47;;;16.50;100.00
32492;BME280;20605;49.742;18.802;2022-09-09T04:31:59;97626.96;;;16.51;100.00
32492;BME280;20605;49.742;18.802;2022-09-09T04:34:26;97629.50;;;16.53;100.00
32492;BME280;20605;49.742;18.802;2022-09-09T04:36:53;97634.29;;;16.53;100.00
32492;BME280;20605;49.742;18.802;2022-09-09T04:39:19;97622.64;;;16.50;100.00
32492;BME280;20605;49.742;18.802;2022-09-09T04:41:46;97618.88;;;16.47;100.00
32492;BME280;20605;49.742;18.802;2022-09-09T04:44:12;97623.93;;;16.43;100.00
32492;BME280;20605;49.742;18.802;2022-09-09T04:46:39;97624.48;;;16.41;100.00
32492;BME280;20605;49.742;18.802;2022-09-09T04:49:07;97629.48;;;16.46;100.00
32492;BME280;20605;49.742;18.802;2022-09-09T04:51:33;97629.48;;;16.46;100.00
32492;BME280;20605;49.742;18.802;2022-09-09T04:54:01;97621.50;;;16.47;100.00
32492;BME280;20605;49.742;18.802;2022-09-09T04:56:28;97630.81;;;16.53;100.00
32492;BME280;20605;49.742;18.802;2022-09-09T05:02:32;97634.37;;;16.68;100.00
32492;BME280;20605;49.742;18.802;2022-09-09T05:05:00;97634.20;;;16.78;100.00
32492;BME280;20605;49.742;18.802;2022-09-09T05:07:27;97635.81;;;16.87;100.00
32492;BME280;20605;49.742;18.802;2022-09-09T05:09:54;97640.50;;;16.96;100.00
32492;BME280;20605;49.742;18.802;2022-09-09T05:12:24;97639.39;;;17.08;100.00
32492;BME280;20605;49.742;18.802;2022-09-09T05:14:55;97640.33;;;17.14;100.00
32492;BME280;20605;49.742;18.802;2022-09-09T05:17:22;97641.38;;;17.25;100.00
32492;BME280;20605;49.742;18.802;2022-09-09T05:19:48;97655.20;;;17.36;100.00
32492;BME280;20605;49.742;18.802;2022-09-09T05:22:19;97653.70;;;17.46;100.00
32492;BME280;20605;49.742;18.802;2022-09-09T05:24:47;97658.77;;;17.56;100.00
32492;BME280;20605;49.742;18.802;2022-09-09T05:27:16;97663.55;;;17.92;100.00
32492;BME280;20605;49.742;18.802;2022-09-09T05:29:46;97660.63;;;17.97;100.00
32492;BME280;20605;49.742;18.802;2022-09-09T05:32:14;97659.31;;;17.97;100.00
32492;BME280;20605;49.742;18.802;2022-09-09T05:34:43;97662.98;;;17.95;100.00
32492;BME280;20605;49.742;18.802;2022-09-09T05:37:11;97658.84;;;17.98;100.00
32492;BME280;20605;49.742;18.802;2022-09-09T05:39:38;97659.65;;;18.12;100.00
32492;BME280;20605;49.742;18.802;2022-09-09T05:42:05;97653.06;;;18.32;100.00
32492;BME280;20605;49.742;18.802;2022-09-09T05:44:32;97649.79;;;18.48;100.00
32492;BME280;20605;49.742;18.802;2022-09-09T05:46:59;97652.73;;;18.71;100.00
32492;BME280;20605;49.742;18.802;2022-09-09T05:49:26;97649.08;;;19.49;100.00
32492;BME280;20605;49.742;18.802;2022-09-09T05:51:52;97650.02;;;20.53;100.00
32492;BME280;20605;49.742;18.802;2022-09-09T05:54:20;97641.80;;;21.31;100.00
32492;BME280;20605;49.742;18.802;2022-09-09T05:56:48;97648.17;;;22.01;100.00
32492;BME280;20605;49.742;18.802;2022-09-09T05:59:17;97644.27;;;22.60;100.00
32492;BME280;20605;49.742;18.802;2022-09-09T06:01:44;97652.30;;;23.53;100.00
32492;BME280;20605;49.742;18.802;2022-09-09T06:04:16;97648.81;;;23.83;100.00
32492;BME280;20605;49.742;18.802;2022-09-09T06:06:44;97646.02;;;24.09;100.00
32492;BME280;20605;49.742;18.802;2022-09-09T06:09:12;97642.52;;;23.84;100.00
32492;BME280;20605;49.742;18.802;2022-09-09T06:11:41;97639.16;;;23.66;100.00
32492;BME280;20605;49.742;18.802;2022-09-09T06:14:09;97630.35;;;24.41;100.00
32492;BME280;20605;49.742;18.802;2022-09-09T06:16:37;97630.77;;;24.46;100.00
32492;BME280;20605;49.742;18.802;2022-09-09T06:19:05;97640.67;;;23.99;100.00
32492;BME280;20605;49.742;18.802;2022-09-09T06:21:35;97639.65;;;23.35;100.00
32492;BME280;20605;49.742;18.802;2022-09-09T06:24:04;97644.52;;;23.30;100.00
32492;BME280;20605;49.742;18.802;2022-09-09T06:26:33;97645.27;;;23.27;100.00
32492;BME280;20605;49.742;18.802;2022-09-09T06:29:02;97651.00;;;23.47;100.00
32492;BME280;20605;49.742;18.802;2022-09-09T06:31:32;97647.23;;;23.55;100.00
32492;BME280;20605;49.742;18.802;2022-09-09T06:34:04;97646.92;;;24.04;100.00
32492;BME280;20605;49.742;18.802;2022-09-09T06:36:36;97644.00;;;24.32;100.00
32492;BME280;20605;49.742;18.802;2022-09-09T06:39:05;97644.30;;;24.48;100.00
32492;BME280;20605;49.742;18.802;2022-09-09T06:41:34;97637.96;;;24.88;100.00
32492;BME280;20605;49.742;18.802;2022-09-09T06:44:01;97636.27;;;25.72;100.00
32492;BME280;20605;49.742;18.802;2022-09-09T06:46:31;97637.08;;;26.14;100.00
32492;BME280;20605;49.742;18.802;2022-09-09T06:49:00;97637.77;;;26.43;100.00
32492;BME280;20605;49.742;18.802;2022-09-09T06:51:31;97632.68;;;27.07;100.00
32492;BME280;20605;49.742;18.802;2022-09-09T06:54:03;97636.03;;;27.95;100.00
32492;BME280;20605;49.742;18.802;2022-09-09T06:56:32;97630.70;;;28.74;97.76
32492;BME280;20605;49.742;18.802;2022-09-09T06:59:05;97631.91;;;28.92;98.45
32492;BME280;20605;49.742;18.802;2022-09-09T07:01:36;97628.38;;;29.19;95.30
32492;BME280;20605;49.742;18.802;2022-09-09T07:04:11;97621.84;;;29.14;92.23
32492;BME280;20605;49.742;18.802;2022-09-09T07:06:42;97629.20;;;29.44;91.85
32492;BME280;20605;49.742;18.802;2022-09-09T07:09:14;97627.50;;;29.95;88.38
32492;BME280;20605;49.742;18.802;2022-09-09T07:11:50;97618.91;;;30.38;89.87
32492;BME280;20605;49.742;18.802;2022-09-09T07:14:16;97624.00;;;31.73;84.26
32492;BME280;20605;49.742;18.802;2022-09-09T07:16:45;97621.88;;;31.64;81.52
32492;BME280;20605;49.742;18.802;2022-09-09T07:19:13;97624.69;;;32.00;84.62
32492;BME280;20605;49.742;18.802;2022-09-09T07:21:41;97616.97;;;33.12;80.97
32492;BME280;20605;49.742;18.802;2022-09-09T07:24:10;97628.03;;;34.38;81.34
32492;BME280;20605;49.742;18.802;2022-09-09T07:26:39;97617.38;;;34.60;69.57
32492;BME280;20605;49.742;18.802;2022-09-09T07:29:07;97630.00;;;33.58;71.94
32492;BME280;20605;49.742;18.802;2022-09-09T07:31:36;97624.48;;;33.55;73.29
32492;BME280;20605;49.742;18.802;2022-09-09T07:34:07;97631.00;;;35.07;74.60
32492;BME280;20605;49.742;18.802;2022-09-09T07:36:36;97630.86;;;35.63;70.16
32492;BME280;20605;49.742;18.802;2022-09-09T07:39:08;97631.56;;;36.17;63.88
32492;BME280;20605;49.742;18.802;2022-09-09T07:41:44;97636.73;;;36.03;67.47
32492;BME280;20605;49.742;18.802;2022-09-09T07:44:16;97635.04;;;36.08;65.13
32492;BME280;20605;49.742;18.802;2022-09-09T07:46:44;97640.07;;;36.49;62.45
32492;BME280;20605;49.742;18.802;2022-09-09T07:49:14;97633.63;;;36.28;63.53
32492;BME280;20605;49.742;18.802;2022-09-09T07:51:43;97631.77;;;36.82;63.01
32492;BME280;20605;49.742;18.802;2022-09-09T07:54:14;97635.09;;;37.41;60.91
32492;BME280;20605;49.742;18.802;2022-09-09T07:56:43;97637.12;;;38.07;60.38
32492;BME280;20605;49.742;18.802;2022-09-09T07:59:10;97642.01;;;38.62;58.16
32492;BME280;20605;49.742;18.802;2022-09-09T08:01:42;97635.48;;;38.15;56.29
32492;BME280;20605;49.742;18.802;2022-09-09T08:04:17;97631.90;;;37.78;55.54
32492;BME280;20605;49.742;18.802;2022-09-09T08:06:48;97627.59;;;37.98;54.88
32492;BME280;20605;49.742;18.802;2022-09-09T08:09:20;97629.19;;;38.33;55.21
32492;BME280;20605;49.742;18.802;2022-09-09T08:11:49;97630.20;;;39.01;55.31
32492;BME280;20605;49.742;18.802;2022-09-09T08:14:17;97631.27;;;40.14;53.85
32492;BME280;20605;49.742;18.802;2022-09-09T08:16:47;97631.30;;;40.42;53.15
32492;BME280;20605;49.742;18.802;2022-09-09T08:19:17;97624.77;;;40.72;51.37
32492;BME280;20605;49.742;18.802;2022-09-09T08:21:44;97628.78;;;40.13;48.41
32492;BME280;20605;49.742;18.802;2022-09-09T08:24:12;97633.24;;;40.30;50.64
32492;BME280;20605;49.742;18.802;2022-09-09T08:26:46;97636.17;;;40.55;48.99
32492;BME280;20605;49.742;18.802;2022-09-09T08:29:16;97635.45;;;39.82;48.67
32492;BME280;20605;49.742;18.802;2022-09-09T08:31:48;97636.59;;;39.48;49.46
32492;BME280;20605;49.742;18.802;2022-09-09T08:34:17;97638.25;;;39.61;50.28
32492;BME280;20605;49.742;18.802;2022-09-09T08:36:49;97643.09;;;40.05;49.45
32492;BME280;20605;49.742;18.802;2022-09-09T08:39:19;97640.80;;;39.76;47.88
32492;BME280;20605;49.742;18.802;2022-09-09T08:45:04;97632.63;;;38.49;47.72
32492;BME280;20605;49.742;18.802;2022-09-09T08:50:22;97625.84;;;39.44;47.32
32492;BME280;20605;49.742;18.802;2022-09-09T08:55:55;97626.78;;;41.22;46.37
32492;BME280;20605;49.742;18.802;2022-09-09T08:58:35;97623.36;;;42.04;44.45
32492;BME280;20605;49.742;18.802;2022-09-09T09:07:02;97613.02;;;37.83;45.01
32492;BME280;20605;49.742;18.802;2022-09-09T09:09:41;97608.84;;;37.53;44.93
32492;BME280;20605;49.742;18.802;2022-09-09T09:12:16;97604.48;;;37.98;45.39
32492;BME280;20605;49.742;18.802;2022-09-09T09:14:46;97602.75;;;37.94;42.98
32492;BME280;20605;49.742;18.802;2022-09-09T09:17:19;97597.96;;;37.44;44.41
32492;BME280;20605;49.742;18.802;2022-09-09T09:19:48;97597.01;;;37.75;44.64
32492;BME280;20605;49.742;18.802;2022-09-09T09:22:30;97606.04;;;38.42;44.42
32492;BME280;20605;49.742;18.802;2022-09-09T09:25:19;97601.52;;;39.07;43.59
32492;BME280;20605;49.742;18.802;2022-09-09T09:28:17;97601.03;;;39.66;42.70
32492;BME280;20605;49.742;18.802;2022-09-09T09:33:51;97582.25;;;40.62;40.64
32492;BME280;20605;49.742;18.802;2022-09-09T09:36:44;97585.75;;;40.88;40.54
32492;BME280;20605;49.742;18.802;2022-09-09T09:39:30;97593.95;;;41.05;40.46
32492;BME280;20605;49.742;18.802;2022-09-09T09:41:57;97601.66;;;39.94;39.28
32492;BME280;20605;49.742;18.802;2022-09-09T09:44:29;97597.53;;;38.68;39.60
32492;BME280;20605;49.742;18.802;2022-09-09T09:47:16;97597.16;;;37.80;41.57
32492;BME280;20605;49.742;18.802;2022-09-09T09:49:58;97603.27;;;37.07;40.55
32492;BME280;20605;49.742;18.802;2022-09-09T09:52:29;97602.20;;;36.36;40.33
32492;BME280;20605;49.742;18.802;2022-09-09T09:55:02;97610.56;;;35.99;40.84
32492;BME280;20605;49.742;18.802;2022-09-09T09:57:31;97616.25;;;35.71;40.83
32492;BME280;20605;49.742;18.802;2022-09-09T10:00:13;97608.88;;;34.77;41.86
32492;BME280;20605;49.742;18.802;2022-09-09T10:02:44;97617.55;;;33.98;42.53
32492;BME280;20605;49.742;18.802;2022-09-09T10:08:05;97627.30;;;32.34;44.00
32492;BME280;20605;49.742;18.802;2022-09-09T10:10:47;97635.61;;;31.88;44.54
32492;BME280;20605;49.742;18.802;2022-09-09T10:19:34;97626.57;;;29.83;48.90
32492;BME280;20605;49.742;18.802;2022-09-09T10:22:19;97622.34;;;29.17;49.08
32492;BME280;20605;49.742;18.802;2022-09-09T10:25:12;97619.97;;;28.74;50.76
32492;BME280;20605;49.742;18.802;2022-09-09T10:30:34;97638.19;;;27.91;54.94
32492;BME280;20605;49.742;18.802;2022-09-09T10:33:41;97628.77;;;27.53;54.32
32492;BME280;20605;49.742;18.802;2022-09-09T10:36:22;97627.14;;;27.26;55.48
32492;BME280;20605;49.742;18.802;2022-09-09T10:45:01;97632.38;;;27.10;57.46
32492;BME280;20605;49.742;18.802;2022-09-09T10:55:43;97623.53;;;26.74;58.41
32492;BME280;20605;49.742;18.802;2022-09-09T10:58:21;97622.23;;;26.78;58.65
32492;BME280;20605;49.742;18.802;2022-09-09T11:00:53;97633.98;;;26.68;58.79
32492;BME280;20605;49.742;18.802;2022-09-09T11:03:23;97633.88;;;26.55;60.20
32492;BME280;20605;49.742;18.802;2022-09-09T11:05:57;97630.28;;;26.47;60.54
32492;BME280;20605;49.742;18.802;2022-09-09T11:08:38;97632.98;;;26.33;60.36
32492;BME280;20605;49.742;18.802;2022-09-09T11:11:10;97628.58;;;26.14;60.19
32492;BME280;20605;49.742;18.802;2022-09-09T11:14:00;97635.70;;;26.10;60.42
32492;BME280;20605;49.742;18.802;2022-09-09T11:16:49;97642.75;;;25.97;59.98
32492;BME280;20605;49.742;18.802;2022-09-09T11:19:34;97631.58;;;25.97;60.69
32492;BME280;20605;49.742;18.802;2022-09-09T11:25:05;97645.16;;;25.77;61.01
32492;BME280;20605;49.742;18.802;2022-09-09T11:33:59;97653.52;;;25.78;61.94
32492;BME280;20605;49.742;18.802;2022-09-09T11:37:08;97649.72;;;25.94;62.37
32492;BME280;20605;49.742;18.802;2022-09-09T11:42:29;97647.74;;;25.96;63.38
32492;BME280;20605;49.742;18.802;2022-09-09T11:44:55;97647.40;;;25.95;64.61
32492;BME280;20605;49.742;18.802;2022-09-09T11:47:28;97640.59;;;26.00;64.29
32492;BME280;20605;49.742;18.802;2022-09-09T11:52:48;97642.70;;;25.93;64.82
32492;BME280;20605;49.742;18.802;2022-09-09T11:58:02;97642.30;;;25.88;63.87
32492;BME280;20605;49.742;18.802;2022-09-09T12:00:42;97648.78;;;25.85;64.42
32492;BME280;20605;49.742;18.802;2022-09-09T12:06:08;97649.77;;;25.98;64.59
32492;BME280;20605;49.742;18.802;2022-09-09T12:08:51;97650.48;;;26.04;64.08
32492;BME280;20605;49.742;18.802;2022-09-09T12:11:28;97650.61;;;26.30;63.40
32492;BME280;20605;49.742;18.802;2022-09-09T12:13:59;97660.02;;;26.65;63.01
32492;BME280;20605;49.742;18.802;2022-09-09T12:16:33;97658.49;;;26.81;62.83
32492;BME280;20605;49.742;18.802;2022-09-09T12:22:00;97656.70;;;26.68;63.47
32492;BME280;20605;49.742;18.802;2022-09-09T12:27:36;97649.75;;;26.75;62.39
32492;BME280;20605;49.742;18.802;2022-09-09T12:30:11;97651.09;;;26.57;61.85
32492;BME280;20605;49.742;18.802;2022-09-09T12:32:40;97649.28;;;26.44;61.85
32492;BME280;20605;49.742;18.802;2022-09-09T12:35:13;97637.41;;;26.28;62.29
32492;BME280;20605;49.742;18.802;2022-09-09T12:37:52;97639.20;;;26.10;62.25
32492;BME280;20605;49.742;18.802;2022-09-09T12:40:25;97632.38;;;26.12;62.42
32492;BME280;20605;49.742;18.802;2022-09-09T12:42:57;97632.42;;;26.16;62.55
32492;BME280;20605;49.742;18.802;2022-09-09T12:45:27;97625.45;;;26.19;62.85
32492;BME280;20605;49.742;18.802;2022-09-09T12:47:59;97624.86;;;26.39;62.98
32492;BME280;20605;49.742;18.802;2022-09-09T12:50:33;97619.87;;;26.57;62.50
32492;BME280;20605;49.742;18.802;2022-09-09T12:53:11;97616.39;;;26.79;62.40
32492;BME280;20605;49.742;18.802;2022-09-09T12:55:49;97614.74;;;26.82;61.20
32492;BME280;20605;49.742;18.802;2022-09-09T12:58:19;97617.99;;;26.72;60.99
32492;BME280;20605;49.742;18.802;2022-09-09T13:00:54;97626.81;;;26.68;60.89
32492;BME280;20605;49.742;18.802;2022-09-09T13:03:23;97626.44;;;26.63;61.24
32492;BME280;20605;49.742;18.802;2022-09-09T13:05:51;97614.87;;;26.58;62.20
32492;BME280;20605;49.742;18.802;2022-09-09T13:08:19;97609.72;;;26.43;61.76
32492;BME280;20605;49.742;18.802;2022-09-09T13:10:53;97616.50;;;26.24;62.08
32492;BME280;20605;49.742;18.802;2022-09-09T13:13:43;97614.58;;;26.16;62.13
32492;BME280;20605;49.742;18.802;2022-09-09T13:16:00;97620.36;;;25.94;62.17
32492;BME280;20605;49.742;18.802;2022-09-09T13:18:34;97620.95;;;25.74;63.07
32492;BME280;20605;49.742;18.802;2022-09-09T13:21:02;97625.06;;;25.59;62.84
32492;BME280;20605;49.742;18.802;2022-09-09T13:23:34;97621.59;;;25.49;62.95
32492;BME280;20605;49.742;18.802;2022-09-09T13:26:05;97617.53;;;25.45;63.33
32492;BME280;20605;49.742;18.802;2022-09-09T13:28:33;97612.64;;;25.40;62.46
32492;BME280;20605;49.742;18.802;2022-09-09T13:31:03;97609.13;;;25.40;62.29
32492;BME280;20605;49.742;18.802;2022-09-09T13:33:39;97610.61;;;25.38;62.08
32492;BME280;20605;49.742;18.802;2022-09-09T13:36:08;97608.78;;;25.39;62.40
32492;BME280;20605;49.742;18.802;2022-09-09T13:38:38;97605.97;;;25.40;62.42
32492;BME280;20605;49.742;18.802;2022-09-09T13:41:18;97604.38;;;25.33;63.09
32492;BME280;20605;49.742;18.802;2022-09-09T13:43:52;97597.51;;;25.31;64.45
32492;BME280;20605;49.742;18.802;2022-09-09T13:46:36;97596.52;;;25.32;65.13
32492;BME280;20605;49.742;18.802;2022-09-09T13:51:42;97582.23;;;25.23;65.36
32492;BME280;20605;49.742;18.802;2022-09-09T13:54:14;97573.34;;;25.19;65.87
32492;BME280;20605;49.742;18.802;2022-09-09T13:56:43;97575.05;;;25.10;65.94
32492;BME280;20605;49.742;18.802;2022-09-09T13:59:18;97568.77;;;25.01;66.75
32492;BME280;20605;49.742;18.802;2022-09-09T14:01:48;97573.72;;;25.10;67.59
32492;BME280;20605;49.742;18.802;2022-09-09T14:04:18;97577.86;;;25.09;66.79
32492;BME280;20605;49.742;18.802;2022-09-09T14:06:49;97580.94;;;25.14;66.88
32492;BME280;20605;49.742;18.802;2022-09-09T14:09:17;97579.98;;;25.28;66.51
32492;BME280;20605;49.742;18.802;2022-09-09T14:11:45;97576.34;;;25.43;66.13
32492;BME280;20605;49.742;18.802;2022-09-09T14:14:12;97573.30;;;25.52;66.10
32492;BME280;20605;49.742;18.802;2022-09-09T14:16:38;97569.55;;;25.58;66.21
32492;BME280;20605;49.742;18.802;2022-09-09T14:19:08;97565.89;;;25.59;66.19
32492;BME280;20605;49.742;18.802;2022-09-09T14:21:35;97566.71;;;25.70;66.67
32492;BME280;20605;49.742;18.802;2022-09-09T14:24:02;97557.37;;;25.83;66.67
32492;BME280;20605;49.742;18.802;2022-09-09T14:26:29;97560.13;;;25.91;66.10
32492;BME280;20605;49.742;18.802;2022-09-09T14:28:56;97551.48;;;25.93;65.82
32492;BME280;20605;49.742;18.802;2022-09-09T14:31:23;97544.17;;;25.82;65.48
32492;BME280;20605;49.742;18.802;2022-09-09T14:33:50;97543.19;;;25.83;65.64
32492;BME280;20605;49.742;18.802;2022-09-09T14:36:17;97543.58;;;25.88;66.09
32492;BME280;20605;49.742;18.802;2022-09-09T14:38:47;97548.56;;;25.87;66.21
32492;BME280;20605;49.742;18.802;2022-09-09T14:41:16;97539.64;;;25.64;65.98
32492;BME280;20605;49.742;18.802;2022-09-09T14:43:44;97543.51;;;25.43;66.62
32492;BME280;20605;49.742;18.802;2022-09-09T14:46:13;97540.08;;;25.23;66.76
32492;BME280;20605;49.742;18.802;2022-09-09T14:48:42;97543.39;;;24.97;66.98
32492;BME280;20605;49.742;18.802;2022-09-09T14:51:13;97546.70;;;24.76;67.69
32492;BME280;20605;49.742;18.802;2022-09-09T14:53:45;97546.20;;;24.53;68.42